sensor_id;sensor_type;location;lat;lon;timestamp;temperature;humidity
46562;DHT22;32289;42.688;23.330;2022-08-21T00:00:28;18.50;99.90
46562;DHT22;32289;42.688;23.330;2022-08-21T00:04:10;18.80;99.90
46562;DHT22;32289;42.688;23.330;2022-08-21T00:07:51;18.70;99.90
46562;DHT22;32289;42.688;23.330;2022-08-21T00:11:34;18.80;99.90
46562;DHT22;32289;42.688;23.330;2022-08-21T00:15:18;18.70;99.90
46562;DHT22;32289;42.688;23.330;2022-08-21T00:19:19;18.80;99.90
46562;DHT22;32289;42.688;23.330;2022-08-21T00:23:02;18.80;99.90
46562;DHT22;32289;42.688;23.330;2022-08-21T00:26:44;19.00;99.90
46562;DHT22;32289;42.688;23.330;2022-08-21T00:30:26;18.80;99.90
46562;DHT22;32289;42.688;23.330;2022-08-21T00:34:07;18.80;99.90
46562;DHT22;32289;42.688;23.330;2022-08-21T00:37:48;18.80;99.90
46562;DHT22;32289;42.688;23.330;2022-08-21T00:41:29;19.00;99.90
46562;DHT22;32289;42.688;23.330;2022-08-21T00:45:11;18.90;99.90
46562;DHT22;32289;42.688;23.330;2022-08-21T00:48:52;18.90;99.90
46562;DHT22;32289;42.688;23.330;2022-08-21T00:52:34;18.90;99.90
46562;DHT22;32289;42.688;23.330;2022-08-21T00:56:16;18.90;99.90
46562;DHT22;32289;42.688;23.330;2022-08-21T01:00:00;18.90;99.90
46562;DHT22;32289;42.688;23.330;2022-08-21T01:03:51;18.80;99.90
46562;DHT22;32289;42.688;23.330;2022-08-21T01:07:31;18.90;99.90
46562;DHT22;32289;42.688;23.330;2022-08-21T01:11:14;18.90;99.90
46562;DHT22;32289;42.688;23.330;2022-08-21T01:14:55;18.60;99.90
46562;DHT22;32289;42.688;23.330;2022-08-21T01:18:36;18.80;99.90
46562;DHT22;32289;42.688;23.330;2022-08-21T01:22:19;18.60;99.90
46562;DHT22;32289;42.688;23.330;2022-08-21T01:26:00;18.60;99.90
46562;DHT22;32289;42.688;23.330;2022-08-21T01:30:04;18.40;99.90
46562;DHT22;32289;42.688;23.330;2022-08-21T01:33:48;18.50;99.90
46562;DHT22;32289;42.688;23.330;2022-08-21T01:37:28;18.60;99.90
46562;DHT22;32289;42.688;23.330;2022-08-21T01:41:09;18.50;99.90
46562;DHT22;32289;42.688;23.330;2022-08-21T01:44:50;18.60;99.90
46562;DHT22;32289;42.688;23.330;2022-08-21T01:48:32;18.70;99.90
46562;DHT22;32289;42.688;23.330;2022-08-21T01:52:13;18.50;99.90
46562;DHT22;32289;42.688;23.330;2022-08-21T01:55:54;18.50;99.90
46562;DHT22;32289;42.688;23.330;2022-08-21T01:59:35;18.60;99.90
46562;DHT22;32289;42.688;23.330;2022-08-21T02:03:15;18.50;99.90
46562;DHT22;32289;42.688;23.330;2022-08-21T02:06:56;18.40;99.90
46562;DHT22;32289;42.688;23.330;2022-08-21T02:10:37;18.50;99.90
46562;DHT22;32289;42.688;23.330;2022-08-21T02:14:18;18.60;99.90
46562;DHT22;32289;42.688;23.330;2022-08-21T02:18:01;18.30;99.90
46562;DHT22;32289;42.688;23.330;2022-08-21T02:21:43;18.10;99.90
46562;DHT22;32289;42.688;23.330;2022-08-21T02:25:25;18.00;99.90
46562;DHT22;32289;42.688;23.330;2022-08-21T02:29:07;18.10;99.90
46562;DHT22;32289;42.688;23.330;2022-08-21T02:32:53;18.30;99.90
46562;DHT22;32289;42.688;23.330;2022-08-21T02:36:34;18.20;99.90
46562;DHT22;32289;42.688;23.330;2022-08-21T02:40:17;18.40;99.90
46562;DHT22;32289;42.688;23.330;2022-08-21T02:43:58;18.20;99.90
46562;DHT22;32289;42.688;23.330;2022-08-21T02:47:40;18.10;99.90
46562;DHT22;32289;42.688;23.330;2022-08-21T02:51:26;18.10;99.90
46562;DHT22;32289;42.688;23.330;2022-08-21T02:55:07;18.00;99.90
46562;DHT22;32289;42.688;23.330;2022-08-21T02:58:50;18.10;99.90
46562;DHT22;32289;42.688;23.330;2022-08-21T03:02:31;18.00;99.90
46562;DHT22;32289;42.688;23.330;2022-08-21T03:06:14;17.80;99.90
46562;DHT22;32289;42.688;23.330;2022-08-21T03:09:55;17.80;99.90
46562;DHT22;32289;42.688;23.330;2022-08-21T03:13:36;17.60;99.90
46562;DHT22;32289;42.688;23.330;2022-08-21T03:17:17;17.70;99.90
46562;DHT22;32289;42.688;23.330;2022-08-21T03:20:58;17.80;99.90
46562;DHT22;32289;42.688;23.330;2022-08-21T03:24:38;17.70;99.90
46562;DHT22;32289;42.688;23.330;2022-08-21T03:28:20;17.70;99.90
46562;DHT22;32289;42.688;23.330;2022-08-21T03:32:03;17.70;99.90
46562;DHT22;32289;42.688;23.330;2022-08-21T03:35:46;17.70;99.90
46562;DHT22;32289;42.688;23.330;2022-08-21T03:39:38;17.70;99.90
46562;DHT22;32289;42.688;23.330;2022-08-21T03:43:20;17.60;99.90
46562;DHT22;32289;42.688;23.330;2022-08-21T03:47:01;17.50;99.90
46562;DHT22;32289;42.688;23.330;2022-08-21T03:50:43;17.50;99.90
46562;DHT22;32289;42.688;23.330;2022-08-21T03:54:25;17.50;99.90
46562;DHT22;32289;42.688;23.330;2022-08-21T03:58:06;17.30;99.90
46562;DHT22;32289;42.688;23.330;2022-08-21T04:01:54;17.40;99.90
46562;DHT22;32289;42.688;23.330;2022-08-21T04:05:35;17.30;99.90
46562;DHT22;32289;42.688;23.330;2022-08-21T04:09:18;17.40;99.90
46562;DHT22;32289;42.688;23.330;2022-08-21T04:12:58;17.50;99.90
46562;DHT22;32289;42.688;23.330;2022-08-21T04:16:40;17.30;99.90
46562;DHT22;32289;42.688;23.330;2022-08-21T04:20:22;17.40;99.90
46562;DHT22;32289;42.688;23.330;2022-08-21T04:24:04;17.40;99.90
46562;DHT22;32289;42.688;23.330;2022-08-21T04:27:45;17.40;99.90
46562;DHT22;32289;42.688;23.330;2022-08-21T04:31:26;17.40;99.90
46562;DHT22;32289;42.688;23.330;2022-08-21T04:35:16;17.50;99.90
46562;DHT22;32289;42.688;23.330;2022-08-21T04:38:57;17.50;99.90
46562;DHT22;32289;42.688;23.330;2022-08-21T04:43:01;17.60;99.90
46562;DHT22;32289;42.688;23.330;2022-08-21T04:46:45;17.70;99.90
46562;DHT22;32289;42.688;23.330;2022-08-21T04:54:25;18.00;99.90
46562;DHT22;32289;42.688;23.330;2022-08-21T04:58:07;18.10;99.90
46562;DHT22;32289;42.688;23.330;2022-08-21T05:01:49;17.80;99.90
46562;DHT22;32289;42.688;23.330;2022-08-21T05:05:32;18.20;99.90
46562;DHT22;32289;42.688;23.330;2022-08-21T05:09:15;18.70;99.90
46562;DHT22;32289;42.688;23.330;2022-08-21T05:12:57;19.50;99.90
46562;DHT22;32289;42.688;23.330;2022-08-21T05:16:38;19.20;99.90
46562;DHT22;32289;42.688;23.330;2022-08-21T05:20:20;19.30;99.90
46562;DHT22;32289;42.688;23.330;2022-08-21T05:24:01;19.30;99.90
46562;DHT22;32289;42.688;23.330;2022-08-21T05:27:42;19.30;99.90
46562;DHT22;32289;42.688;23.330;2022-08-21T05:31:23;20.40;99.90
46562;DHT22;32289;42.688;23.330;2022-08-21T05:35:06;21.80;99.90
46562;DHT22;32289;42.688;23.330;2022-08-21T05:38:47;20.90;99.90
46562;DHT22;32289;42.688;23.330;2022-08-21T05:42:28;20.60;99.90
46562;DHT22;32289;42.688;23.330;2022-08-21T05:46:09;21.70;99.90
46562;DHT22;32289;42.688;23.330;2022-08-21T05:49:50;22.40;99.90
46562;DHT22;32289;42.688;23.330;2022-08-21T05:53:31;21.50;99.90
46562;DHT22;32289;42.688;23.330;2022-08-21T05:57:16;21.50;99.90
46562;DHT22;32289;42.688;23.330;2022-08-21T06:00:57;20.80;99.90
46562;DHT22;32289;42.688;23.330;2022-08-21T06:04:39;20.30;99.90
46562;DHT22;32289;42.688;23.330;2022-08-21T06:08:20;20.10;99.90
46562;DHT22;32289;42.688;23.330;2022-08-21T06:12:10;19.90;99.90
46562;DHT22;32289;42.688;23.330;2022-08-21T06:16:02;19.60;99.90
46562;DHT22;32289;42.688;23.330;2022-08-21T06:19:43;20.20;99.90
46562;DHT22;32289;42.688;23.330;2022-08-21T06:23:23;21.50;99.90
46562;DHT22;32289;42.688;23.330;2022-08-21T06:27:07;23.20;99.90
46562;DHT22;32289;42.688;23.330;2022-08-21T06:30:48;21.70;99.90
46562;DHT22;32289;42.688;23.330;2022-08-21T06:34:29;21.10;99.90
46562;DHT22;32289;42.688;23.330;2022-08-21T06:38:13;20.30;99.90
46562;DHT22;32289;42.688;23.330;2022-08-21T06:41:53;20.60;99.90
46562;DHT22;32289;42.688;23.330;2022-08-21T06:45:35;22.40;99.90
46562;DHT22;32289;42.688;23.330;2022-08-21T06:49:16;22.80;99.90
46562;DHT22;32289;42.688;23.330;2022-08-21T06:53:05;25.20;96.50
46562;DHT22;32289;42.688;23.330;2022-08-21T06:56:46;25.30;91.20
46562;DHT22;32289;42.688;23.330;2022-08-21T07:00:48;25.00;91.30
46562;DHT22;32289;42.688;23.330;2022-08-21T07:04:38;24.40;93.00
46562;DHT22;32289;42.688;23.330;2022-08-21T07:08:19;26.70;85.30
46562;DHT22;32289;42.688;23.330;2022-08-21T07:12:00;27.00;80.70
46562;DHT22;32289;42.688;23.330;2022-08-21T07:15:42;26.80;84.10
46562;DHT22;32289;42.688;23.330;2022-08-21T07:19:23;26.90;81.30
46562;DHT22;32289;42.688;23.330;2022-08-21T07:23:42;27.40;77.00
46562;DHT22;32289;42.688;23.330;2022-08-21T07:27:18;28.10;75.30
46562;DHT22;32289;42.688;23.330;2022-08-21T07:31:00;27.00;75.70
46562;DHT22;32289;42.688;23.330;2022-08-21T07:34:42;27.60;76.00
46562;DHT22;32289;42.688;23.330;2022-08-21T07:38:24;24.90;88.00
46562;DHT22;32289;42.688;23.330;2022-08-21T07:42:05;23.80;93.20
46562;DHT22;32289;42.688;23.330;2022-08-21T07:45:46;24.10;94.90
46562;DHT22;32289;42.688;23.330;2022-08-21T07:49:30;23.40;96.20
46562;DHT22;32289;42.688;23.330;2022-08-21T07:53:14;24.90;92.10
46562;DHT22;32289;42.688;23.330;2022-08-21T07:56:57;25.40;90.40
46562;DHT22;32289;42.688;23.330;2022-08-21T08:00:37;24.60;92.10
46562;DHT22;32289;42.688;23.330;2022-08-21T08:04:19;24.40;91.50
46562;DHT22;32289;42.688;23.330;2022-08-21T08:08:00;23.90;93.40
46562;DHT22;32289;42.688;23.330;2022-08-21T08:11:42;24.80;92.20
46562;DHT22;32289;42.688;23.330;2022-08-21T08:29:44;23.60;95.80
46562;DHT22;32289;42.688;23.330;2022-08-21T08:33:25;23.90;95.50
46562;DHT22;32289;42.688;23.330;2022-08-21T08:37:08;23.40;95.90
46562;DHT22;32289;42.688;23.330;2022-08-21T08:41:10;23.10;96.10
46562;DHT22;32289;42.688;23.330;2022-08-21T08:49:19;24.10;93.30
46562;DHT22;32289;42.688;23.330;2022-08-21T08:53:07;27.20;81.30
46562;DHT22;32289;42.688;23.330;2022-08-21T08:56:48;28.20;74.80
46562;DHT22;32289;42.688;23.330;2022-08-21T09:00:33;27.00;78.70
46562;DHT22;32289;42.688;23.330;2022-08-21T09:04:20;27.90;75.30
46562;DHT22;32289;42.688;23.330;2022-08-21T09:27:57;26.60;77.80
46562;DHT22;32289;42.688;23.330;2022-08-21T09:31:37;28.20;72.20
46562;DHT22;32289;42.688;23.330;2022-08-21T09:35:21;27.20;74.90
46562;DHT22;32289;42.688;23.330;2022-08-21T09:39:05;27.40;75.00
46562;DHT22;32289;42.688;23.330;2022-08-21T09:42:58;26.70;77.60
46562;DHT22;32289;42.688;23.330;2022-08-21T09:47:03;25.60;81.60
46562;DHT22;32289;42.688;23.330;2022-08-21T09:50:43;26.10;80.60
46562;DHT22;32289;42.688;23.330;2022-08-21T09:54:30;26.00;80.20
46562;DHT22;32289;42.688;23.330;2022-08-21T09:58:11;25.40;86.30
46562;DHT22;32289;42.688;23.330;2022-08-21T10:01:53;25.20;83.20
46562;DHT22;32289;42.688;23.330;2022-08-21T10:05:34;25.00;86.40
46562;DHT22;32289;42.688;23.330;2022-08-21T10:09:19;24.00;90.80
46562;DHT22;32289;42.688;23.330;2022-08-21T10:17:27;24.00;91.50
46562;DHT22;32289;42.688;23.330;2022-08-21T10:25:19;24.40;90.20
46562;DHT22;32289;42.688;23.330;2022-08-21T10:29:23;25.00;86.70
46562;DHT22;32289;42.688;23.330;2022-08-21T11:02:09;27.80;76.30
46562;DHT22;32289;42.688;23.330;2022-08-21T11:05:58;27.30;77.60
46562;DHT22;32289;42.688;23.330;2022-08-21T11:09:47;27.30;79.50
46562;DHT22;32289;42.688;23.330;2022-08-21T11:17:43;27.70;75.20
46562;DHT22;32289;42.688;23.330;2022-08-21T11:25:23;28.40;73.40
46562;DHT22;32289;42.688;23.330;2022-08-21T11:29:20;28.30;72.90
46562;DHT22;32289;42.688;23.330;2022-08-21T11:33:13;27.60;73.90
46562;DHT22;32289;42.688;23.330;2022-08-21T11:41:16;27.40;74.30
46562;DHT22;32289;42.688;23.330;2022-08-21T11:53:19;27.40;72.50
46562;DHT22;32289;42.688;23.330;2022-08-21T11:57:08;26.80;74.80
46562;DHT22;32289;42.688;23.330;2022-08-21T12:01:03;25.90;79.30
46562;DHT22;32289;42.688;23.330;2022-08-21T12:04:55;26.20;78.20
46562;DHT22;32289;42.688;23.330;2022-08-21T12:13:32;25.60;78.90
46562;DHT22;32289;42.688;23.330;2022-08-21T12:17:21;25.80;76.70
46562;DHT22;32289;42.688;23.330;2022-08-21T12:21:45;26.00;74.70
46562;DHT22;32289;42.688;23.330;2022-08-21T12:34:40;25.30;78.20
46562;DHT22;32289;42.688;23.330;2022-08-21T12:38:48;25.10;80.10
46562;DHT22;32289;42.688;23.330;2022-08-21T12:42:37;25.00;80.00
46562;DHT22;32289;42.688;23.330;2022-08-21T12:46:36;24.90;79.80
46562;DHT22;32289;42.688;23.330;2022-08-21T12:54:52;25.00;80.90
46562;DHT22;32289;42.688;23.330;2022-08-21T12:58:34;24.60;81.50
46562;DHT22;32289;42.688;23.330;2022-08-21T13:02:42;24.50;83.30
46562;DHT22;32289;42.688;23.330;2022-08-21T13:06:45;24.60;82.90
46562;DHT22;32289;42.688;23.330;2022-08-21T13:10:32;24.70;82.90
46562;DHT22;32289;42.688;23.330;2022-08-21T13:14:37;24.60;82.20
46562;DHT22;32289;42.688;23.330;2022-08-21T13:18:31;24.80;82.30
46562;DHT22;32289;42.688;23.330;2022-08-21T13:22:14;24.60;82.80
46562;DHT22;32289;42.688;23.330;2022-08-21T13:25:56;24.40;85.00
46562;DHT22;32289;42.688;23.330;2022-08-21T13:29:41;24.40;87.00
46562;DHT22;32289;42.688;23.330;2022-08-21T13:33:30;24.50;86.10
46562;DHT22;32289;42.688;23.330;2022-08-21T13:37:26;24.70;85.50
46562;DHT22;32289;42.688;23.330;2022-08-21T13:45:18;24.80;86.40
46562;DHT22;32289;42.688;23.330;2022-08-21T13:49:00;25.40;83.30
46562;DHT22;32289;42.688;23.330;2022-08-21T13:53:05;24.80;85.60
46562;DHT22;32289;42.688;23.330;2022-08-21T14:01:04;24.60;86.50
46562;DHT22;32289;42.688;23.330;2022-08-21T14:04:58;24.60;86.70
46562;DHT22;32289;42.688;23.330;2022-08-21T14:08:40;24.70;86.40
46562;DHT22;32289;42.688;23.330;2022-08-21T14:12:43;24.70;87.20
46562;DHT22;32289;42.688;23.330;2022-08-21T14:16:29;25.00;86.40
46562;DHT22;32289;42.688;23.330;2022-08-21T14:20:36;24.80;88.90
46562;DHT22;32289;42.688;23.330;2022-08-21T14:24:29;24.60;88.60
46562;DHT22;32289;42.688;23.330;2022-08-21T14:28:33;24.40;90.50
46562;DHT22;32289;42.688;23.330;2022-08-21T14:32:36;24.50;90.10
46562;DHT22;32289;42.688;23.330;2022-08-21T14:36:54;24.60;89.20
46562;DHT22;32289;42.688;23.330;2022-08-21T14:40:42;24.70;87.40
46562;DHT22;32289;42.688;23.330;2022-08-21T14:44:24;24.70;89.10
46562;DHT22;32289;42.688;23.330;2022-08-21T14:48:17;24.60;91.60
46562;DHT22;32289;42.688;23.330;2022-08-21T14:52:00;24.80;87.90
46562;DHT22;32289;42.688;23.330;2022-08-21T14:55:41;24.50;90.00
46562;DHT22;32289;42.688;23.330;2022-08-21T14:59:41;24.20;88.40
46562;DHT22;32289;42.688;23.330;2022-08-21T15:03:21;24.20;90.90
46562;DHT22;32289;42.688;23.330;2022-08-21T15:07:05;24.20;91.90
46562;DHT22;32289;42.688;23.330;2022-08-21T15:10:47;24.10;92.80
46562;DHT22;32289;42.688;23.330;2022-08-21T15:14:30;24.10;93.60
46562;DHT22;32289;42.688;23.330;2022-08-21T15:18:13;24.20;92.00
46562;DHT22;32289;42.688;23.330;2022-08-21T15:21:53;24.20;91.90
46562;DHT22;32289;42.688;23.330;2022-08-21T15:25:39;24.00;92.00
46562;DHT22;32289;42.688;23.330;2022-08-21T15:29:21;24.10;90.60
46562;DHT22;32289;42.688;23.330;2022-08-21T15:33:02;23.70;90.70
46562;DHT22;32289;42.688;23.330;2022-08-21T15:36:43;23.70;90.60
46562;DHT22;32289;42.688;23.330;2022-08-21T15:40:24;23.60;91.00
46562;DHT22;32289;42.688;23.330;2022-08-21T15:44:05;23.90;90.40
46562;DHT22;32289;42.688;23.330;2022-08-21T15:47:46;23.70;91.00
46562;DHT22;32289;42.688;23.330;2022-08-21T15:51:29;23.70;91.60
46562;DHT22;32289;42.688;23.330;2022-08-21T15:55:10;23.50;93.30
46562;DHT22;32289;42.688;23.330;2022-08-21T15:58:58;23.40;94.20
46562;DHT22;32289;42.688;23.330;2022-08-21T16:02:43;23.40;94.70
46562;DHT22;32289;42.688;23.330;2022-08-21T16:06:24;23.40;94.70
46562;DHT22;32289;42.688;23.330;2022-08-21T16:10:06;23.30;95.20
46562;DHT22;32289;42.688;23.330;2022-08-21T16:13:48;23.30;95.60
46562;DHT22;32289;42.688;23.330;2022-08-21T16:17:32;23.30;95.00
46562;DHT22;32289;42.688;23.330;2022-08-21T16:21:16;23.10;95.80
46562;DHT22;32289;42.688;23.330;2022-08-21T16:24:56;23.00;96.20
46562;DHT22;32289;42.688;23.330;2022-08-21T16:28:38;22.90;96.40
46562;DHT22;32289;42.688;23.330;2022-08-21T16:32:21;22.80;96.80
46562;DHT22;32289;42.688;23.330;2022-08-21T16:36:03;22.80;97.00
46562;DHT22;32289;42.688;23.330;2022-08-21T16:39:47;22.80;97.20
46562;DHT22;32289;42.688;23.330;2022-08-21T16:43:29;22.80;96.90
46562;DHT22;32289;42.688;23.330;2022-08-21T16:47:11;23.00;97.40
46562;DHT22;32289;42.688;23.330;2022-08-21T16:50:52;22.90;97.60
46562;DHT22;32289;42.688;23.330;2022-08-21T16:54:33;23.00;97.20
46562;DHT22;32289;42.688;23.330;2022-08-21T16:58:21;22.80;98.20
46562;DHT22;32289;42.688;23.330;2022-08-21T17:02:03;22.80;98.50
46562;DHT22;32289;42.688;23.330;2022-08-21T17:05:44;22.70;98.90
46562;DHT22;32289;42.688;23.330;2022-08-21T17:09:24;22.50;99.90
46562;DHT22;32289;42.688;23.330;2022-08-21T17:13:05;22.40;99.30
46562;DHT22;32289;42.688;23.330;2022-08-21T17:16:52;22.30;99.20
46562;DHT22;32289;42.688;23.330;2022-08-21T17:20:34;22.50;99.20
46562;DHT22;32289;42.688;23.330;2022-08-21T17:24:14;22.40;98.90
46562;DHT22;32289;42.688;23.330;2022-08-21T17:27:56;22.50;99.50
46562;DHT22;32289;42.688;23.330;2022-08-21T17:31:41;22.50;99.30
46562;DHT22;32289;42.688;23.330;2022-08-21T17:35:23;22.50;97.80
46562;DHT22;32289;42.688;23.330;2022-08-21T17:39:07;22.50;97.50
46562;DHT22;32289;42.688;23.330;2022-08-21T17:42:51;22.50;97.30
46562;DHT22;32289;42.688;23.330;2022-08-21T17:46:36;22.50;98.40
46562;DHT22;32289;42.688;23.330;2022-08-21T17:50:20;22.70;97.70
46562;DHT22;32289;42.688;23.330;2022-08-21T17:54:03;22.70;99.90
46562;DHT22;32289;42.688;23.330;2022-08-21T17:57:44;22.50;99.90
46562;DHT22;32289;42.688;23.330;2022-08-21T18:01:28;22.20;99.90
46562;DHT22;32289;42.688;23.330;2022-08-21T18:05:17;22.00;99.90
46562;DHT22;32289;42.688;23.330;2022-08-21T18:09:00;22.10;99.90
46562;DHT22;32289;42.688;23.330;2022-08-21T18:12:42;22.10;99.90
46562;DHT22;32289;42.688;23.330;2022-08-21T18:16:28;22.20;99.90
46562;DHT22;32289;42.688;23.330;2022-08-21T18:20:09;22.20;99.90
46562;DHT22;32289;42.688;23.330;2022-08-21T18:23:50;22.20;99.90
46562;DHT22;32289;42.688;23.330;2022-08-21T18:27:34;22.20;99.90
46562;DHT22;32289;42.688;23.330;2022-08-21T18:31:15;22.20;99.90
46562;DHT22;32289;42.688;23.330;2022-08-21T18:34:57;22.00;99.90
46562;DHT22;32289;42.688;23.330;2022-08-21T18:38:39;22.20;99.90
46562;DHT22;32289;42.688;23.330;2022-08-21T18:42:20;22.00;99.90
46562;DHT22;32289;42.688;23.330;2022-08-21T18:46:01;22.10;99.90
46562;DHT22;32289;42.688;23.330;2022-08-21T18:49:45;22.00;99.90
46562;DHT22;32289;42.688;23.330;2022-08-21T18:53:26;21.90;99.90
46562;DHT22;32289;42.688;23.330;2022-08-21T18:57:07;21.80;99.90
46562;DHT22;32289;42.688;23.330;2022-08-21T19:00:49;21.80;99.90
46562;DHT22;32289;42.688;23.330;2022-08-21T19:04:35;21.80;99.90
46562;DHT22;32289;42.688;23.330;2022-08-21T19:08:19;21.80;99.90
46562;DHT22;32289;42.688;23.330;2022-08-21T19:12:00;21.60;99.90
46562;DHT22;32289;42.688;23.330;2022-08-21T19:15:47;21.70;99.90
46562;DHT22;32289;42.688;23.330;2022-08-21T19:19:35;21.50;99.90
46562;DHT22;32289;42.688;23.330;2022-08-21T19:23:17;21.50;99.90
46562;DHT22;32289;42.688;23.330;2022-08-21T19:26:58;21.50;99.90
46562;DHT22;32289;42.688;23.330;2022-08-21T19:30:57;21.50;99.90
46562;DHT22;32289;42.688;23.330;2022-08-21T19:34:39;21.40;99.90
46562;DHT22;32289;42.688;23.330;2022-08-21T19:38:20;21.30;99.90
46562;DHT22;32289;42.688;23.330;2022-08-21T19:42:02;21.20;99.90
46562;DHT22;32289;42.688;23.330;2022-08-21T19:45:42;21.00;99.90
46562;DHT22;32289;42.688;23.330;2022-08-21T19:49:26;20.90;99.90
46562;DHT22;32289;42.688;23.330;2022-08-21T19:53:11;20.70;99.90
46562;DHT22;32289;42.688;23.330;2022-08-21T19:56:57;20.70;99.90
46562;DHT22;32289;42.688;23.330;2022-08-21T20:00:40;20.60;99.90
46562;DHT22;32289;42.688;23.330;2022-08-21T20:04:25;20.80;99.90
46562;DHT22;32289;42.688;23.330;2022-08-21T20:08:09;20.80;99.90
46562;DHT22;32289;42.688;23.330;2022-08-21T20:11:57;21.00;99.90
46562;DHT22;32289;42.688;23.330;2022-08-21T20:15:48;21.10;99.90
46562;DHT22;32289;42.688;23.330;2022-08-21T20:19:29;21.20;99.90
46562;DHT22;32289;42.688;23.330;2022-08-21T20:23:24;21.10;99.90
46562;DHT22;32289;42.688;23.330;2022-08-21T20:27:09;21.20;99.90
46562;DHT22;32289;42.688;23.330;2022-08-21T20:31:15;21.10;99.90
46562;DHT22;32289;42.688;23.330;2022-08-21T20:34:57;20.70;99.90
46562;DHT22;32289;42.688;23.330;2022-08-21T20:38:37;20.90;99.90
46562;DHT22;32289;42.688;23.330;2022-08-21T20:42:18;20.60;99.90
46562;DHT22;32289;42.688;23.330;2022-08-21T20:46:01;20.70;99.90
46562;DHT22;32289;42.688;23.330;2022-08-21T20:49:50;20.20;99.90
46562;DHT22;32289;42.688;23.330;2022-08-21T20:53:45;20.30;99.90
46562;DHT22;32289;42.688;23.330;2022-08-21T20:57:44;20.30;99.90
46562;DHT22;32289;42.688;23.330;2022-08-21T21:01:32;20.30;99.90
46562;DHT22;32289;42.688;23.330;2022-08-21T21:05:30;20.10;99.90
46562;DHT22;32289;42.688;23.330;2022-08-21T21:09:17;20.00;99.90
46562;DHT22;32289;42.688;23.330;2022-08-21T21:13:04;19.90;99.90
46562;DHT22;32289;42.688;23.330;2022-08-21T21:16:55;19.90;99.90
46562;DHT22;32289;42.688;23.330;2022-08-21T21:28:54;20.10;99.90
46562;DHT22;32289;42.688;23.330;2022-08-21T21:32:36;20.10;99.90
46562;DHT22;32289;42.688;23.330;2022-08-21T21:36:23;20.00;99.90
46562;DHT22;32289;42.688;23.330;2022-08-21T21:44:26;19.70;99.90
46562;DHT22;32289;42.688;23.330;2022-08-21T21:52:28;19.80;99.90
46562;DHT22;32289;42.688;23.330;2022-08-21T22:04:49;19.70;99.90
46562;DHT22;32289;42.688;23.330;2022-08-21T22:08:36;19.70;99.90
46562;DHT22;32289;42.688;23.330;2022-08-21T22:16:04;19.60;99.90
46562;DHT22;32289;42.688;23.330;2022-08-21T22:19:46;19.60;99.90
46562;DHT22;32289;42.688;23.330;2022-08-21T22:23:40;19.60;99.90
46562;DHT22;32289;42.688;23.330;2022-08-21T22:27:30;19.60;99.90
46562;DHT22;32289;42.688;23.330;2022-08-21T22:31:23;19.40;99.90
46562;DHT22;32289;42.688;23.330;2022-08-21T22:35:24;19.40;99.90
46562;DHT22;32289;42.688;23.330;2022-08-21T22:39:13;19.40;99.90
46562;DHT22;32289;42.688;23.330;2022-08-21T22:43:03;19.40;99.90
46562;DHT22;32289;42.688;23.330;2022-08-21T22:46:49;19.20;99.90
46562;DHT22;32289;42.688;23.330;2022-08-21T22:50:31;19.30;99.90
46562;DHT22;32289;42.688;23.330;2022-08-21T22:54:32;19.20;99.90
46562;DHT22;32289;42.688;23.330;2022-08-21T22:58:22;19.30;99.90
46562;DHT22;32289;42.688;23.330;2022-08-21T23:06:34;19.10;99.90
46562;DHT22;32289;42.688;23.330;2022-08-21T23:10:25;19.20;99.90
46562;DHT22;32289;42.688;23.330;2022-08-21T23:14:07;19.20;99.90
46562;DHT22;32289;42.688;23.330;2022-08-21T23:30:16;19.00;99.90
46562;DHT22;32289;42.688;23.330;2022-08-21T23:50:31;19.00;99.90
46562;DHT22;32289;42.688;23.330;2022-08-21T23:54:39;19.10;99.90
46562;DHT22;32289;42.688;23.330;2022-08-21T23:58:51;19.10;99.90
